createdAt,value
2019-05-10T00:01:51.737Z,6.77
2019-05-10T00:04:38.143Z,5.70
2019-05-10T00:07:25.230Z,7.63
2019-05-10T00:09:52.984Z,6.07
2019-05-10T00:12:32.357Z,6.77
2019-05-10T00:15:00.939Z,6.27
2019-05-10T00:17:29.381Z,8.00
2019-05-10T00:19:57.631Z,7.47
2019-05-10T00:22:25.928Z,6.53
2019-05-10T00:25:03.759Z,7.23
2019-05-10T00:27:24.839Z,7.17
2019-05-10T00:29:53.319Z,6.33
2019-05-10T00:32:22.066Z,5.80
2019-05-10T00:34:50.825Z,8.87
2019-05-10T00:37:19.309Z,8.57
2019-05-10T00:39:47.834Z,10.63
2019-05-10T00:42:15.995Z,8.53
2019-05-10T00:44:44.257Z,6.50
2019-05-10T00:47:12.900Z,7.17
2019-05-10T00:49:41.497Z,7.23
2019-05-10T00:52:10.082Z,9.00
2019-05-10T00:54:39.016Z,7.10
2019-05-10T00:57:07.182Z,7.00
2019-05-10T00:59:35.446Z,8.63
2019-05-10T01:02:03.572Z,6.70
2019-05-10T01:04:31.962Z,7.77
2019-05-10T01:07:00.401Z,6.93
2019-05-10T01:09:28.547Z,6.97
2019-05-10T01:11:56.695Z,6.73
2019-05-10T01:14:25.150Z,8.47
2019-05-10T01:16:53.341Z,8.23
2019-05-10T01:19:21.856Z,8.30
2019-05-10T01:21:50.029Z,7.17
2019-05-10T01:24:18.162Z,8.23
2019-05-10T01:26:46.708Z,9.83
2019-05-10T01:29:14.862Z,6.60
2019-05-10T01:31:43.383Z,7.20
2019-05-10T01:34:11.615Z,8.17
2019-05-10T01:36:39.743Z,12.37
2019-05-10T01:39:07.920Z,8.13
2019-05-10T01:41:36.372Z,10.63
2019-05-10T01:44:04.544Z,10.97
2019-05-10T01:46:33.117Z,10.27
2019-05-10T01:49:01.947Z,11.90
2019-05-10T01:51:30.108Z,15.33
2019-05-10T01:53:59.032Z,13.17
2019-05-10T01:56:27.225Z,15.03
2019-05-10T01:58:55.993Z,12.63
2019-05-10T02:01:24.474Z,14.73
2019-05-10T02:03:52.914Z,17.03
2019-05-10T02:06:21.652Z,13.43
2019-05-10T02:08:49.820Z,14.60
2019-05-10T02:11:18.064Z,16.27
2019-05-10T02:13:52.555Z,17.47
2019-05-10T02:16:21.084Z,14.90
2019-05-10T02:18:49.320Z,14.47
2019-05-10T02:21:18.469Z,17.37
2019-05-10T02:23:47.156Z,16.77
2019-05-10T02:26:15.313Z,15.93
2019-05-10T02:28:43.428Z,17.07
2019-05-10T02:31:11.768Z,15.63
2019-05-10T02:33:41.297Z,20.43
2019-05-10T02:36:09.828Z,18.20
2019-05-10T02:38:37.985Z,20.27
2019-05-10T02:41:06.210Z,19.10
2019-05-10T02:43:34.859Z,17.77
2019-05-10T02:46:02.959Z,19.00
2019-05-10T02:48:31.397Z,19.60
2019-05-10T02:50:59.841Z,23.00
2019-05-10T02:53:28.521Z,19.27
2019-05-10T02:55:57.424Z,19.20
2019-05-10T02:58:26.229Z,22.10
2019-05-10T03:00:56.767Z,23.37
2019-05-10T03:03:29.817Z,19.10
2019-05-10T03:06:01.848Z,17.70
2019-05-10T03:08:46.870Z,19.90
2019-05-10T03:11:15.917Z,21.00
2019-05-10T03:13:48.544Z,22.43
2019-05-10T03:16:20.813Z,21.20
2019-05-10T03:18:51.100Z,23.53
2019-05-10T03:21:20.986Z,21.20
2019-05-10T03:23:50.149Z,22.47
2019-05-10T03:26:18.615Z,24.00
2019-05-10T03:28:47.025Z,22.60
2019-05-10T03:31:15.296Z,25.47
2019-05-10T03:33:43.606Z,23.70
2019-05-10T03:36:12.277Z,23.53
2019-05-10T03:38:40.951Z,24.50
2019-05-10T03:41:09.097Z,24.90
2019-05-10T03:43:37.812Z,23.33
2019-05-10T03:46:06.036Z,24.67
2019-05-10T03:48:34.902Z,24.57
2019-05-10T03:51:03.303Z,24.97
2019-05-10T03:53:31.416Z,28.20
2019-05-10T03:56:00.128Z,25.90
2019-05-10T03:58:28.241Z,28.13
2019-05-10T04:00:56.362Z,24.10
2019-05-10T04:03:24.564Z,27.00
2019-05-10T04:05:52.752Z,27.13
2019-05-10T04:08:21.134Z,29.30
2019-05-10T04:10:49.346Z,25.70
2019-05-10T04:13:17.493Z,25.50
2019-05-10T04:15:46.039Z,28.27
2019-05-10T04:18:14.252Z,24.67
2019-05-10T04:20:42.883Z,23.07
2019-05-10T04:23:11.805Z,26.87
2019-05-10T04:25:40.569Z,22.07
2019-05-10T04:28:08.907Z,25.33
2019-05-10T04:30:37.059Z,20.70
2019-05-10T04:33:05.416Z,17.43
2019-05-10T04:35:33.909Z,19.07
2019-05-10T04:38:02.185Z,21.20
2019-05-10T04:40:30.718Z,18.43
2019-05-10T04:42:58.898Z,19.77
2019-05-10T04:45:27.137Z,19.87
2019-05-10T04:47:55.315Z,22.60
2019-05-10T04:50:23.534Z,22.77
2019-05-10T04:52:52.119Z,16.83
2019-05-10T04:55:20.272Z,21.73
2019-05-10T04:57:51.090Z,22.63
2019-05-10T05:00:20.245Z,17.70
2019-05-10T05:02:48.477Z,19.17
2019-05-10T05:05:17.516Z,15.67
2019-05-10T05:07:45.726Z,19.47
2019-05-10T05:10:13.862Z,23.23
2019-05-10T05:12:42.102Z,17.27
2019-05-10T05:15:10.590Z,22.10
2019-05-10T05:17:39.045Z,22.07
2019-05-10T05:20:07.318Z,19.83
2019-05-10T05:22:35.767Z,19.20
2019-05-10T05:25:04.313Z,17.77
2019-05-10T05:27:32.914Z,21.23
2019-05-10T05:30:01.099Z,24.00
2019-05-10T05:32:29.266Z,19.60
2019-05-10T05:34:57.750Z,17.57
2019-05-10T05:37:26.000Z,18.80
2019-05-10T05:39:54.690Z,22.27
2019-05-10T05:42:28.031Z,21.27
2019-05-10T05:44:55.149Z,18.13
2019-05-10T05:47:23.778Z,18.27
2019-05-10T05:49:52.217Z,21.63
2019-05-10T05:52:20.380Z,18.70
2019-05-10T05:54:52.826Z,23.37
2019-05-10T05:57:22.222Z,19.97
2019-05-10T05:59:49.572Z,21.30
2019-05-10T06:02:18.075Z,19.97
2019-05-10T06:04:47.672Z,21.97
2019-05-10T06:07:16.753Z,23.43
2019-05-10T06:09:45.202Z,19.60
2019-05-10T06:12:14.267Z,17.57
2019-05-10T06:14:52.413Z,23.43
2019-05-10T06:17:23.639Z,23.37
2019-05-10T06:19:51.118Z,19.87
2019-05-10T06:22:19.254Z,18.30
2019-05-10T06:24:52.445Z,21.80
2019-05-10T06:27:18.217Z,18.70
2019-05-10T06:29:46.502Z,18.63
2019-05-10T06:32:14.794Z,21.73
2019-05-10T06:34:43.273Z,17.87
2019-05-10T06:37:11.968Z,18.67
2019-05-10T06:39:40.217Z,18.27
2019-05-10T06:42:09.765Z,19.67
2019-05-10T06:44:39.732Z,20.40
2019-05-10T06:47:10.028Z,21.27
2019-05-10T06:49:41.722Z,20.33
2019-05-10T06:52:07.996Z,21.37
2019-05-10T06:54:36.182Z,21.20
2019-05-10T06:57:04.419Z,21.07
2019-05-10T06:59:33.195Z,21.10
2019-05-10T07:02:01.305Z,22.43
2019-05-10T07:04:34.317Z,20.00
2019-05-10T07:06:59.723Z,18.73
2019-05-10T07:09:28.080Z,17.03
2019-05-10T07:11:56.696Z,18.40
2019-05-10T07:14:27.113Z,22.27
2019-05-10T07:16:56.556Z,18.93
2019-05-10T07:19:28.763Z,15.23
2019-05-10T07:21:56.150Z,22.40
2019-05-10T07:24:27.025Z,13.10
2019-05-10T07:26:56.524Z,17.63
2019-05-10T07:29:30.158Z,17.63
2019-05-10T07:31:56.110Z,16.87
2019-05-10T07:34:24.765Z,17.80
2019-05-10T07:36:52.913Z,15.63
2019-05-10T07:39:21.275Z,15.10
2019-05-10T07:41:49.474Z,16.23
2019-05-10T07:44:17.971Z,11.80
2019-05-10T07:46:49.711Z,7.37
2019-05-10T07:49:16.286Z,7.23
2019-05-10T07:51:44.617Z,5.03
2019-05-10T07:54:12.965Z,2.27
2019-05-10T07:56:45.556Z,2.83
2019-05-10T07:59:16.327Z,2.60
2019-05-10T08:01:41.981Z,2.13
2019-05-10T08:04:13.026Z,2.93
2019-05-10T08:06:47.653Z,2.77
2019-05-10T08:09:10.812Z,2.77
2019-05-10T08:11:39.293Z,2.73
2019-05-10T08:14:11.054Z,2.83
2019-05-10T08:16:38.739Z,4.03
2019-05-10T08:19:07.428Z,5.07
2019-05-10T08:21:35.653Z,3.53
2019-05-10T08:24:05.674Z,5.53
2019-05-10T08:26:33.916Z,4.90
2019-05-10T08:29:02.286Z,4.37
2019-05-10T08:31:33.935Z,6.67
2019-05-10T08:34:02.216Z,4.57
2019-05-10T08:36:32.154Z,5.90
2019-05-10T08:39:09.999Z,5.67
2019-05-10T08:41:32.597Z,3.80
2019-05-10T08:44:04.552Z,5.73
2019-05-10T08:46:40.169Z,6.67
2019-05-10T08:49:02.086Z,5.50
2019-05-10T08:51:32.255Z,4.37
2019-05-10T08:54:01.749Z,3.33
2019-05-10T08:56:33.089Z,3.13
2019-05-10T08:59:03.647Z,4.63
2019-05-10T09:01:38.449Z,5.17
2019-05-10T09:04:06.613Z,6.63
2019-05-10T09:06:32.792Z,3.50
2019-05-10T09:09:01.934Z,4.23
2019-05-10T09:11:32.803Z,3.80
2019-05-10T09:14:03.242Z,5.17
2019-05-10T09:16:39.304Z,4.07
2019-05-10T09:19:02.573Z,4.77
2019-05-10T09:21:32.202Z,4.67
2019-05-10T09:24:03.411Z,4.13
2019-05-10T09:26:32.205Z,5.00
2019-05-10T09:29:01.629Z,4.63
2019-05-10T09:31:32.648Z,2.63
2019-05-10T09:34:02.417Z,4.97
2019-05-10T09:36:35.471Z,5.27
2019-05-10T09:39:03.388Z,4.23
2019-05-10T09:41:33.825Z,3.70
2019-05-10T09:44:03.045Z,4.70
2019-05-10T09:46:32.404Z,4.93
2019-05-10T09:49:13.728Z,4.30
2019-05-10T09:51:33.170Z,3.40
2019-05-10T09:54:01.821Z,4.97
2019-05-10T09:56:32.963Z,5.53
2019-05-10T09:59:00.079Z,4.20
2019-05-10T10:01:28.331Z,3.73
2019-05-10T10:03:58.357Z,4.03
2019-05-10T10:06:29.555Z,5.43
2019-05-10T10:08:57.718Z,4.40
2019-05-10T10:11:27.795Z,8.77
2019-05-10T10:13:59.192Z,6.07
2019-05-10T10:16:28.192Z,7.10
2019-05-10T10:18:56.931Z,4.17
2019-05-10T10:21:35.024Z,4.63
2019-05-10T10:24:00.007Z,3.23
2019-05-10T10:26:26.807Z,3.67
2019-05-10T10:28:57.854Z,4.47
2019-05-10T10:31:30.350Z,4.17
2019-05-10T10:34:02.618Z,2.63
2019-05-10T10:36:27.413Z,3.87
2019-05-10T10:38:56.994Z,2.73
2019-05-10T10:41:31.199Z,4.53
2019-05-10T10:43:58.356Z,4.90
2019-05-10T10:46:28.080Z,2.70
2019-05-10T10:48:56.575Z,2.93
2019-05-10T10:51:26.548Z,3.13
2019-05-10T10:53:57.972Z,4.73
2019-05-10T10:56:27.697Z,3.23
2019-05-10T10:58:58.118Z,3.20
2019-05-10T11:01:38.028Z,6.13
2019-05-10T11:03:57.027Z,3.60
2019-05-10T11:06:25.810Z,5.43
2019-05-10T11:08:54.087Z,3.33
2019-05-10T11:11:22.234Z,4.30
2019-05-10T11:13:58.639Z,2.93
2019-05-10T11:16:21.199Z,4.30
2019-05-10T11:18:51.710Z,5.27
2019-05-10T11:21:23.294Z,2.63
2019-05-10T11:23:50.327Z,4.80
2019-05-10T11:26:18.501Z,4.47
2019-05-10T11:28:47.029Z,4.83
2019-05-10T11:31:15.885Z,3.97
2019-05-10T11:33:47.378Z,3.43
2019-05-10T11:36:14.138Z,4.93
2019-05-10T11:38:46.931Z,2.90
2019-05-10T11:41:20.709Z,6.57
2019-05-10T11:43:43.503Z,5.60
2019-05-10T11:46:12.453Z,7.30
2019-05-10T11:48:42.174Z,8.77
2019-05-10T11:51:15.999Z,4.33
2019-05-10T11:53:41.666Z,3.30
2019-05-10T11:56:14.122Z,3.43
2019-05-10T11:58:49.063Z,8.73
2019-05-10T12:01:17.334Z,4.20
2019-05-10T12:03:42.423Z,4.13
2019-05-10T12:06:12.121Z,9.33
2019-05-10T12:08:41.861Z,2.80
2019-05-10T12:11:25.036Z,5.57
2019-05-10T12:13:40.895Z,3.90
2019-05-10T12:16:12.361Z,4.73
2019-05-10T12:18:46.555Z,3.90
2019-05-10T12:21:11.306Z,6.43
2019-05-10T12:23:50.022Z,6.00
2019-05-10T12:28:40.925Z,6.00
2019-05-10T12:31:15.274Z,3.63
2019-05-10T12:33:42.904Z,3.20
2019-05-10T12:36:21.576Z,5.03
2019-05-10T12:38:40.493Z,8.30
2019-05-10T12:41:09.012Z,3.83
2019-05-10T12:43:37.286Z,2.50
2019-05-10T12:46:05.418Z,4.93
2019-05-10T12:48:35.957Z,2.57
2019-05-10T12:51:11.244Z,4.83
2019-05-10T12:53:36.813Z,5.20
2019-05-10T12:56:04.576Z,3.23
2019-05-10T12:58:32.854Z,3.93
2019-05-10T13:01:01.101Z,4.47
2019-05-10T13:03:31.802Z,3.40
2019-05-10T13:05:59.362Z,4.77
2019-05-10T13:08:27.597Z,5.03
2019-05-10T13:10:55.755Z,2.97
2019-05-10T13:13:29.490Z,1.90
2019-05-10T13:15:54.415Z,1.80
2019-05-10T13:18:34.375Z,4.00
2019-05-10T13:20:53.319Z,3.90
2019-05-10T13:23:21.771Z,4.57
2019-05-10T13:25:49.891Z,3.30
2019-05-10T13:28:18.060Z,2.97
2019-05-10T13:30:46.339Z,4.33
2019-05-10T13:33:27.918Z,5.50
2019-05-10T13:35:44.951Z,4.57
2019-05-10T13:38:13.376Z,2.97
2019-05-10T13:40:45.948Z,2.47
2019-05-10T13:43:17.313Z,3.70
2019-05-10T13:45:42.711Z,2.80
2019-05-10T13:48:11.766Z,6.33
2019-05-10T13:50:39.920Z,4.63
2019-05-10T13:53:19.853Z,5.00
2019-05-10T13:55:39.297Z,2.60
2019-05-10T13:58:07.525Z,3.53
2019-05-10T14:00:36.163Z,3.63
2019-05-10T14:03:04.977Z,7.00
2019-05-10T14:05:35.214Z,2.23
2019-05-10T14:08:03.328Z,3.27
2019-05-10T14:10:32.532Z,3.33
2019-05-10T14:13:02.633Z,4.03
2019-05-10T14:15:30.676Z,2.07
2019-05-10T14:17:59.508Z,9.10
2019-05-10T14:20:27.960Z,3.10
2019-05-10T14:22:58.693Z,4.43
2019-05-10T14:25:29.366Z,3.70
2019-05-10T14:27:57.402Z,5.73
2019-05-10T14:30:26.148Z,4.10
2019-05-10T14:32:54.263Z,5.13
2019-05-10T14:35:24.361Z,1.87
2019-05-10T14:37:52.778Z,5.07
2019-05-10T14:40:27.666Z,5.43
2019-05-10T14:42:51.133Z,8.07
2019-05-10T14:45:19.352Z,5.07
2019-05-10T14:47:50.418Z,8.63
2019-05-10T14:50:19.627Z,3.83
2019-05-10T14:52:48.425Z,5.33
2019-05-10T14:55:16.645Z,5.77
2019-05-10T14:57:44.822Z,5.17
2019-05-10T15:00:13.628Z,4.83
2019-05-10T15:02:41.936Z,3.70
2019-05-10T15:05:15.628Z,5.40
2019-05-10T15:07:41.452Z,9.77
2019-05-10T15:10:10.043Z,7.33
2019-05-10T15:12:38.232Z,8.23
2019-05-10T15:15:10.111Z,8.20
2019-05-10T15:17:38.582Z,6.10
2019-05-10T15:20:06.925Z,7.13
2019-05-10T15:22:35.344Z,6.40
2019-05-10T15:25:04.019Z,8.53
2019-05-10T15:27:32.208Z,6.20
2019-05-10T15:30:05.358Z,6.13
2019-05-10T15:32:30.632Z,5.87
2019-05-10T15:35:08.244Z,6.23
2019-05-10T15:37:29.918Z,5.33
2019-05-10T15:40:00.480Z,6.67
2019-05-10T15:42:30.538Z,5.67
2019-05-10T15:44:58.696Z,8.87
2019-05-10T15:47:27.188Z,5.67
2019-05-10T15:50:00.008Z,4.93
2019-05-10T15:52:25.863Z,4.50
2019-05-10T15:54:54.079Z,10.60
2019-05-10T15:57:22.392Z,4.33
2019-05-10T15:59:56.289Z,8.30
2019-05-10T16:02:21.201Z,6.53
2019-05-10T16:04:49.424Z,5.77
2019-05-10T16:07:17.802Z,3.53
2019-05-10T16:09:50.007Z,8.97
2019-05-10T16:12:16.370Z,7.43
2019-05-10T16:14:45.695Z,6.00
2019-05-10T16:17:17.520Z,5.67
2019-05-10T16:19:44.176Z,4.63
2019-05-10T16:22:12.384Z,9.97
2019-05-10T16:24:40.784Z,4.17
2019-05-10T16:27:09.484Z,6.60
2019-05-10T16:29:40.130Z,7.20
2019-05-10T16:32:07.632Z,3.37
2019-05-10T16:34:36.377Z,5.30
2019-05-10T16:37:04.498Z,5.30
2019-05-10T16:39:32.998Z,3.97
2019-05-10T16:42:01.233Z,4.47
2019-05-10T16:44:30.309Z,6.23
2019-05-10T16:46:58.841Z,3.97
2019-05-10T16:49:27.085Z,8.80
2019-05-10T16:51:55.270Z,10.53
2019-05-10T16:54:25.371Z,6.60
2019-05-10T16:56:59.393Z,8.83
2019-05-10T16:59:24.386Z,4.73
2019-05-10T17:02:03.130Z,7.03
2019-05-10T17:04:24.586Z,4.90
2019-05-10T17:06:54.903Z,10.27
2019-05-10T17:09:23.338Z,8.00
2019-05-10T17:11:51.539Z,6.57
2019-05-10T17:14:20.243Z,12.83
2019-05-10T17:16:50.121Z,11.50
2019-05-10T17:19:18.758Z,9.17
2019-05-10T17:21:47.409Z,6.80
2019-05-10T17:24:18.723Z,6.33
2019-05-10T17:26:46.368Z,8.20
2019-05-10T17:29:14.762Z,9.87
2019-05-10T17:31:45.592Z,13.00
2019-05-10T17:34:22.163Z,7.17
2019-05-10T17:36:43.797Z,8.10
2019-05-10T17:39:12.056Z,9.30
2019-05-10T17:41:40.578Z,5.13
2019-05-10T17:44:09.138Z,4.53
2019-05-10T17:46:37.430Z,8.77
2019-05-10T17:49:06.049Z,6.30
2019-05-10T17:51:34.243Z,12.17
2019-05-10T17:54:03.742Z,12.27
2019-05-10T17:56:32.823Z,8.43
2019-05-10T17:59:05.666Z,10.53
2019-05-10T18:01:33.641Z,10.37
2019-05-10T18:04:01.756Z,11.63
2019-05-10T18:06:30.298Z,8.10
2019-05-10T18:08:58.428Z,9.83
2019-05-10T18:11:26.926Z,8.43
2019-05-10T18:13:55.905Z,8.33
2019-05-10T18:16:24.493Z,7.83
2019-05-10T18:18:52.901Z,7.33
2019-05-10T18:21:23.982Z,6.17
2019-05-10T18:23:52.584Z,7.87
2019-05-10T18:26:22.738Z,6.00
2019-05-10T18:28:51.185Z,11.37
2019-05-10T18:31:19.646Z,5.17
2019-05-10T18:33:54.242Z,3.33
2019-05-10T18:36:19.154Z,11.20
2019-05-10T18:38:47.814Z,7.90
2019-05-10T18:41:16.270Z,8.77
2019-05-10T18:43:45.282Z,13.43
2019-05-10T18:46:13.582Z,11.10
2019-05-10T18:48:42.105Z,4.10
2019-05-10T18:51:10.698Z,5.77
2019-05-10T18:53:38.906Z,6.57
2019-05-10T18:56:07.090Z,8.80
2019-05-10T18:58:35.845Z,4.77
2019-05-10T19:01:04.091Z,8.23
2019-05-10T19:03:33.502Z,7.57
2019-05-10T19:06:10.757Z,9.73
2019-05-10T19:08:34.026Z,6.97
2019-05-10T19:11:03.260Z,7.47
2019-05-10T19:13:34.437Z,6.50
2019-05-10T19:16:02.717Z,6.73
2019-05-10T19:18:30.913Z,4.47
2019-05-10T19:20:59.056Z,6.03
2019-05-10T19:23:27.206Z,5.10
2019-05-10T19:25:55.693Z,6.40
2019-05-10T19:28:26.876Z,4.73
2019-05-10T19:30:58.753Z,5.17
2019-05-10T19:33:29.764Z,7.13
2019-05-10T19:35:55.534Z,6.97
2019-05-10T19:38:23.728Z,6.33
2019-05-10T19:40:51.910Z,9.40
2019-05-10T19:43:21.563Z,4.77
2019-05-10T19:45:51.055Z,7.70
2019-05-10T19:48:20.719Z,5.13
2019-05-10T19:50:49.585Z,7.00
2019-05-10T19:53:17.818Z,8.47
2019-05-10T19:55:45.993Z,7.87
2019-05-10T19:58:14.168Z,6.63
2019-05-10T20:00:42.327Z,5.70
2019-05-10T20:03:11.473Z,3.03
2019-05-10T20:05:40.041Z,5.37
2019-05-10T20:08:08.345Z,7.50
2019-05-10T20:10:36.473Z,6.73
2019-05-10T20:13:04.751Z,12.07
2019-05-10T20:15:32.892Z,4.97
2019-05-10T20:18:01.578Z,4.07
2019-05-10T20:20:29.802Z,7.27
2019-05-10T20:22:58.525Z,9.63
2019-05-10T20:25:26.758Z,7.37
2019-05-10T20:27:54.934Z,7.70
2019-05-10T20:30:23.227Z,8.77
2019-05-10T20:32:51.972Z,5.87
2019-05-10T20:35:20.777Z,7.87
2019-05-10T20:38:01.245Z,7.30
2019-05-10T20:40:19.380Z,6.83
2019-05-10T20:42:47.635Z,8.00
2019-05-10T20:45:16.082Z,8.23
2019-05-10T20:47:44.611Z,8.50
2019-05-10T20:50:13.068Z,7.33
2019-05-10T20:52:41.852Z,7.63
2019-05-10T20:55:10.188Z,5.87
2019-05-10T20:57:38.657Z,11.63
2019-05-10T21:00:07.522Z,10.43
2019-05-10T21:02:35.962Z,5.77
2019-05-10T21:05:04.292Z,8.23
2019-05-10T21:07:32.524Z,6.53
2019-05-10T21:10:00.790Z,6.83
2019-05-10T21:12:29.214Z,3.70
2019-05-10T21:14:57.461Z,8.53
2019-05-10T21:17:26.109Z,11.53
2019-05-10T21:19:54.305Z,7.10
2019-05-10T21:22:22.518Z,5.70
2019-05-10T21:24:50.735Z,7.43
2019-05-10T21:27:18.988Z,5.23
2019-05-10T21:29:47.116Z,8.77
2019-05-10T21:32:16.164Z,9.13
2019-05-10T21:34:44.293Z,7.20
2019-05-10T21:37:12.492Z,4.77
2019-05-10T21:39:40.618Z,7.80
2019-05-10T21:42:08.890Z,7.57
2019-05-10T21:44:37.075Z,10.70
2019-05-10T21:47:05.289Z,6.13
2019-05-10T21:49:33.887Z,12.40
2019-05-10T21:52:02.161Z,10.03
2019-05-10T21:54:30.290Z,8.77
2019-05-10T21:56:58.512Z,11.80
2019-05-10T21:59:26.913Z,11.23
2019-05-10T22:01:55.663Z,7.57
2019-05-10T22:04:24.684Z,7.20
2019-05-10T22:06:52.856Z,6.70
2019-05-10T22:09:21.104Z,7.83
2019-05-10T22:11:49.735Z,9.00
2019-05-10T22:14:17.979Z,7.23
2019-05-10T22:16:46.159Z,11.90
2019-05-10T22:19:14.272Z,7.00
2019-05-10T22:21:42.855Z,7.30
2019-05-10T22:24:11.579Z,7.00
2019-05-10T22:26:39.813Z,7.53
2019-05-10T22:29:08.545Z,7.77
2019-05-10T22:31:37.011Z,4.50
2019-05-10T22:34:05.927Z,5.43
2019-05-10T22:36:34.171Z,7.93
2019-05-10T22:39:07.518Z,8.73
2019-05-10T22:41:35.132Z,6.73
2019-05-10T22:44:03.412Z,8.33
2019-05-10T22:46:32.247Z,8.47
2019-05-10T22:49:00.764Z,10.00
2019-05-10T22:51:29.006Z,9.57
2019-05-10T22:54:00.115Z,7.30
2019-05-10T22:56:28.187Z,9.63
2019-05-10T22:58:56.757Z,7.33
2019-05-10T23:01:24.917Z,5.67
2019-05-10T23:03:54.600Z,7.20
2019-05-10T23:06:23.087Z,6.50
2019-05-10T23:08:51.252Z,8.47
2019-05-10T23:11:19.908Z,10.57
2019-05-10T23:13:48.067Z,10.20
2019-05-10T23:16:16.841Z,4.57
2019-05-10T23:18:45.577Z,5.63
2019-05-10T23:21:13.778Z,7.40
2019-05-10T23:23:42.042Z,6.53
2019-05-10T23:26:10.262Z,7.13
2019-05-10T23:28:38.562Z,7.17
2019-05-10T23:31:06.807Z,8.13
2019-05-10T23:33:34.982Z,7.80
2019-05-10T23:36:03.179Z,9.43
2019-05-10T23:38:31.461Z,9.97
2019-05-10T23:40:59.848Z,7.17
2019-05-10T23:43:28.345Z,8.97
2019-05-10T23:45:56.729Z,9.13
2019-05-10T23:48:25.059Z,6.60
2019-05-10T23:50:53.302Z,7.60
2019-05-10T23:53:21.554Z,6.03
2019-05-10T23:55:50.084Z,5.30
2019-05-10T23:58:18.310Z,6.40
